createdAt,value
2019-04-07T00:00:26.758Z,6.39
2019-04-07T00:02:57.017Z,6.34
2019-04-07T00:05:24.721Z,6.23
2019-04-07T00:07:54.229Z,6.39
2019-04-07T00:10:21.871Z,6.27
2019-04-07T00:12:49.854Z,6.24
2019-04-07T00:15:18.654Z,6.17
2019-04-07T00:17:46.174Z,6.09
2019-04-07T00:20:13.969Z,6.09
2019-04-07T00:22:41.503Z,6.19
2019-04-07T00:25:09.309Z,6.14
2019-04-07T00:27:37.233Z,6.16
2019-04-07T00:30:05.485Z,6.08
2019-04-07T00:32:33.811Z,5.98
2019-04-07T00:35:01.685Z,5.88
2019-04-07T00:37:29.567Z,5.76
2019-04-07T00:39:57.784Z,5.75
2019-04-07T00:42:25.880Z,5.65
2019-04-07T00:44:54.201Z,5.64
2019-04-07T00:47:23.423Z,5.58
2019-04-07T00:49:51.260Z,5.60
2019-04-07T00:52:21.497Z,5.63
2019-04-07T00:54:49.050Z,5.72
2019-04-07T00:57:17.195Z,5.64
2019-04-07T00:59:45.243Z,5.66
2019-04-07T01:02:13.553Z,5.61
2019-04-07T01:04:40.998Z,5.64
2019-04-07T01:07:09.210Z,5.63
2019-04-07T01:09:37.754Z,5.58
2019-04-07T01:12:06.075Z,5.44
2019-04-07T01:14:34.046Z,5.32
2019-04-07T01:17:01.723Z,5.11
2019-04-07T01:19:30.269Z,4.92
2019-04-07T01:22:00.013Z,4.92
2019-04-07T01:24:28.915Z,5.04
2019-04-07T01:26:56.747Z,4.88
2019-04-07T01:29:25.526Z,4.50
2019-04-07T01:31:54.774Z,4.03
2019-04-07T01:34:23.117Z,3.89
2019-04-07T01:36:51.603Z,3.76
2019-04-07T01:39:19.468Z,3.61
2019-04-07T01:42:06.701Z,3.61
2019-04-07T01:45:06.118Z,3.61
2019-04-07T01:47:43.398Z,3.51
2019-04-07T01:50:21.075Z,3.63
2019-04-07T01:53:08.869Z,3.65
2019-04-07T01:55:55.327Z,3.52
2019-04-07T01:58:33.932Z,3.52
2019-04-07T02:01:15.829Z,3.55
2019-04-07T02:04:01.781Z,3.41
2019-04-07T02:07:01.965Z,3.30
2019-04-07T02:09:40.263Z,3.42
2019-04-07T02:12:16.127Z,3.41
2019-04-07T02:15:02.328Z,3.38
2019-04-07T02:17:38.922Z,3.39
2019-04-07T02:20:12.700Z,3.30
2019-04-07T02:22:59.867Z,3.35
2019-04-07T02:25:42.829Z,3.27
2019-04-07T02:28:38.774Z,3.23
2019-04-07T02:31:13.699Z,3.21
2019-04-07T02:33:58.174Z,3.13
2019-04-07T02:36:50.825Z,3.19
2019-04-07T02:39:46.344Z,3.14
2019-04-07T02:42:30.489Z,3.15
2019-04-07T02:45:15.752Z,3.43
2019-04-07T02:48:12.409Z,3.32
2019-04-07T02:51:02.969Z,3.34
2019-04-07T02:54:06.773Z,3.31
2019-04-07T02:56:54.636Z,3.38
2019-04-07T02:59:46.466Z,3.24
2019-04-07T03:02:39.339Z,3.29
2019-04-07T03:05:26.828Z,3.27
2019-04-07T03:08:19.710Z,3.18
2019-04-07T03:11:07.565Z,3.01
2019-04-07T03:13:54.253Z,2.90
2019-04-07T03:16:29.292Z,2.99
2019-04-07T03:19:05.403Z,3.13
2019-04-07T03:21:43.164Z,3.14
2019-04-07T03:24:28.953Z,2.95
2019-04-07T03:27:28.377Z,2.80
2019-04-07T03:30:09.008Z,2.70
2019-04-07T03:32:57.943Z,2.67
2019-04-07T03:35:55.442Z,2.74
2019-04-07T03:38:46.084Z,2.65
2019-04-07T03:41:33.347Z,2.44
2019-04-07T03:44:11.928Z,2.29
2019-04-07T03:47:14.421Z,2.24
2019-04-07T03:49:50.967Z,2.27
2019-04-07T03:52:28.754Z,2.25
2019-04-07T03:55:24.652Z,2.23
2019-04-07T03:58:10.556Z,2.17
2019-04-07T04:01:13.795Z,2.11
2019-04-07T04:03:48.617Z,2.09
2019-04-07T04:06:38.941Z,2.11
2019-04-07T04:09:18.041Z,2.10
2019-04-07T04:11:53.715Z,2.04
2019-04-07T04:14:33.449Z,2.07
2019-04-07T04:17:02.111Z,2.11
2019-04-07T04:19:30.237Z,2.11
2019-04-07T04:21:58.873Z,2.22
2019-04-07T04:24:28.342Z,2.23
2019-04-07T04:26:57.067Z,2.09
2019-04-07T04:29:24.883Z,2.02
2019-04-07T04:31:52.980Z,2.09
2019-04-07T04:34:23.820Z,2.12
2019-04-07T04:36:51.784Z,2.16
2019-04-07T04:39:21.218Z,2.10
2019-04-07T04:41:49.136Z,2.02
2019-04-07T04:44:16.954Z,2.02
2019-04-07T04:46:45.320Z,1.93
2019-04-07T04:49:13.555Z,1.97
2019-04-07T04:51:42.556Z,2.03
2019-04-07T04:54:11.014Z,2.04
2019-04-07T04:56:39.438Z,2.09
2019-04-07T04:59:07.504Z,2.14
2019-04-07T05:01:36.119Z,2.20
2019-04-07T05:04:03.976Z,2.25
2019-04-07T05:06:31.741Z,2.28
2019-04-07T05:08:59.294Z,2.36
2019-04-07T05:11:26.985Z,2.49
2019-04-07T05:13:56.768Z,2.61
2019-04-07T05:16:24.739Z,2.70
2019-04-07T05:18:54.102Z,2.86
2019-04-07T05:21:21.719Z,3.02
2019-04-07T05:23:49.257Z,3.23
2019-04-07T05:26:16.731Z,3.23
2019-04-07T05:28:45.188Z,3.34
2019-04-07T05:31:15.311Z,3.46
2019-04-07T05:33:43.263Z,3.56
2019-04-07T05:36:10.653Z,3.69
2019-04-07T05:38:38.724Z,3.86
2019-04-07T05:41:07.565Z,3.95
2019-04-07T05:43:35.484Z,4.07
2019-04-07T05:46:05.902Z,4.11
2019-04-07T05:48:33.751Z,4.19
2019-04-07T05:51:03.400Z,4.29
2019-04-07T05:53:31.229Z,4.35
2019-04-07T05:55:58.690Z,4.43
2019-04-07T05:58:26.815Z,4.72
2019-04-07T06:00:54.955Z,4.92
2019-04-07T06:03:22.824Z,5.15
2019-04-07T06:05:51.334Z,5.37
2019-04-07T06:08:27.664Z,5.50
2019-04-07T06:10:50.011Z,5.67
2019-04-07T06:13:17.700Z,6.35
2019-04-07T06:15:45.765Z,6.71
2019-04-07T06:18:13.776Z,7.01
2019-04-07T06:20:44.857Z,7.37
2019-04-07T06:23:11.666Z,7.45
2019-04-07T06:25:41.890Z,7.58
2019-04-07T06:28:09.653Z,7.76
2019-04-07T06:30:38.108Z,7.67
2019-04-07T06:33:07.325Z,7.62
2019-04-07T06:35:35.606Z,7.48
2019-04-07T06:38:06.136Z,7.51
2019-04-07T06:40:33.875Z,7.71
2019-04-07T06:43:04.509Z,7.84
2019-04-07T06:45:38.676Z,8.00
2019-04-07T06:48:08.505Z,8.07
2019-04-07T06:50:57.880Z,7.83
2019-04-07T06:53:48.877Z,8.03
2019-04-07T06:56:38.677Z,8.07
2019-04-07T06:59:22.077Z,7.76
2019-04-07T07:02:07.363Z,7.77
2019-04-07T07:04:46.646Z,7.75
2019-04-07T07:07:33.540Z,7.80
2019-04-07T07:10:09.549Z,7.67
2019-04-07T07:13:25.764Z,7.89
2019-04-07T07:16:01.574Z,8.11
2019-04-07T07:18:53.647Z,8.46
2019-04-07T07:21:38.094Z,8.44
2019-04-07T07:24:03.386Z,8.43
2019-04-07T07:26:35.058Z,8.59
2019-04-07T07:29:00.910Z,8.63
2019-04-07T07:31:29.234Z,8.70
2019-04-07T07:33:58.265Z,8.79
2019-04-07T07:36:27.470Z,8.89
2019-04-07T07:39:01.727Z,9.03
2019-04-07T07:41:26.855Z,9.29
2019-04-07T07:43:54.864Z,9.71
2019-04-07T07:46:23.845Z,9.55
2019-04-07T07:48:57.044Z,9.54
2019-04-07T07:51:24.864Z,9.59
2019-04-07T07:53:52.691Z,9.64
2019-04-07T07:56:25.541Z,9.58
2019-04-07T07:58:53.912Z,9.59
2019-04-07T08:01:22.021Z,10.07
2019-04-07T08:03:53.007Z,10.22
2019-04-07T08:06:20.572Z,10.72
2019-04-07T08:08:48.787Z,10.65
2019-04-07T08:11:17.646Z,11.20
2019-04-07T08:13:46.892Z,11.39
2019-04-07T08:16:15.181Z,11.55
2019-04-07T08:18:45.274Z,11.81
2019-04-07T08:21:17.151Z,11.76
2019-04-07T08:23:45.315Z,11.66
2019-04-07T08:26:13.412Z,12.32
2019-04-07T08:28:41.520Z,12.22
2019-04-07T08:31:09.878Z,12.55
2019-04-07T08:33:38.585Z,12.57
2019-04-07T08:36:11.658Z,12.38
2019-04-07T08:38:37.582Z,12.99
2019-04-07T08:41:08.149Z,13.42
2019-04-07T08:43:35.306Z,13.38
2019-04-07T08:46:04.712Z,13.18
2019-04-07T08:48:33.329Z,12.91
2019-04-07T08:51:01.099Z,13.10
2019-04-07T08:53:29.401Z,13.07
2019-04-07T08:55:57.362Z,12.86
2019-04-07T08:58:28.591Z,13.27
2019-04-07T09:00:56.211Z,12.79
2019-04-07T09:03:24.281Z,12.39
2019-04-07T09:05:54.451Z,11.87
2019-04-07T09:08:21.546Z,11.97
2019-04-07T09:11:06.534Z,12.18
2019-04-07T09:13:35.087Z,12.19
2019-04-07T09:16:14.507Z,12.64
2019-04-07T09:19:11.403Z,12.63
2019-04-07T09:21:50.185Z,13.08
2019-04-07T09:24:34.663Z,13.27
2019-04-07T09:27:18.225Z,13.67
2019-04-07T09:30:11.317Z,13.91
2019-04-07T09:33:00.146Z,13.68
2019-04-07T09:35:50.859Z,13.94
2019-04-07T09:38:33.937Z,14.01
2019-04-07T09:41:24.904Z,13.93
2019-04-07T09:44:08.032Z,14.66
2019-04-07T09:46:54.888Z,15.24
2019-04-07T09:49:56.162Z,15.60
2019-04-07T09:52:46.147Z,15.09
2019-04-07T09:55:26.701Z,15.11
2019-04-07T09:58:13.719Z,15.35
2019-04-07T10:00:57.322Z,15.14
2019-04-07T10:03:41.540Z,15.51
2019-04-07T10:06:19.943Z,15.63
2019-04-07T10:09:06.671Z,16.21
2019-04-07T10:11:52.884Z,15.61
2019-04-07T10:14:46.612Z,15.60
2019-04-07T10:17:34.047Z,16.16
2019-04-07T10:20:33.651Z,16.61
2019-04-07T10:23:19.690Z,16.29
2019-04-07T10:26:04.110Z,16.38
2019-04-07T10:28:41.962Z,16.99
2019-04-07T10:31:32.793Z,16.50
2019-04-07T10:34:19.044Z,15.72
2019-04-07T10:37:06.826Z,15.78
2019-04-07T10:39:55.942Z,16.42
2019-04-07T10:42:41.914Z,16.43
2019-04-07T10:45:26.301Z,16.17
2019-04-07T10:48:11.725Z,15.76
2019-04-07T10:50:50.267Z,15.47
2019-04-07T10:53:37.394Z,14.96
2019-04-07T10:56:19.947Z,16.22
2019-04-07T10:59:06.063Z,16.93
2019-04-07T11:01:41.538Z,17.01
2019-04-07T11:04:35.423Z,16.87
2019-04-07T11:07:18.619Z,17.46
2019-04-07T11:10:12.538Z,17.84
2019-04-07T11:13:06.343Z,18.24
2019-04-07T11:15:49.870Z,17.05
2019-04-07T11:18:34.770Z,17.52
2019-04-07T11:21:24.963Z,17.93
2019-04-07T11:24:17.774Z,18.24
2019-04-07T11:26:56.810Z,18.28
2019-04-07T11:29:38.513Z,18.57
2019-04-07T11:32:22.897Z,17.65
2019-04-07T11:35:09.394Z,17.90
2019-04-07T11:37:50.001Z,17.09
2019-04-07T11:40:43.169Z,16.13
2019-04-07T11:43:23.780Z,15.95
2019-04-07T11:46:18.825Z,15.64
2019-04-07T11:49:13.438Z,15.28
2019-04-07T11:52:06.183Z,15.32
2019-04-07T11:54:53.781Z,15.56
2019-04-07T11:57:50.931Z,15.47
2019-04-07T12:00:37.795Z,15.69
2019-04-07T12:03:33.332Z,15.78
2019-04-07T12:06:29.751Z,15.77
2019-04-07T12:09:16.303Z,15.48
2019-04-07T12:12:04.727Z,15.61
2019-04-07T12:15:08.488Z,15.82
2019-04-07T12:17:55.714Z,16.07
2019-04-07T12:20:38.614Z,16.24
2019-04-07T12:23:20.970Z,16.53
2019-04-07T12:26:04.288Z,17.12
2019-04-07T12:28:50.322Z,16.45
2019-04-07T12:31:35.865Z,16.66
2019-04-07T12:34:22.212Z,16.86
2019-04-07T12:37:06.802Z,17.14
2019-04-07T12:40:07.606Z,17.79
2019-04-07T12:42:48.712Z,18.38
2019-04-07T12:45:31.843Z,18.91
2019-04-07T12:48:21.649Z,19.30
2019-04-07T12:50:59.586Z,19.36
2019-04-07T12:53:36.274Z,18.79
2019-04-07T12:56:18.060Z,18.84
2019-04-07T12:59:06.929Z,18.98
2019-04-07T13:02:08.110Z,18.30
2019-04-07T13:04:40.881Z,17.44
2019-04-07T13:07:31.469Z,17.48
2019-04-07T13:10:20.929Z,17.49
2019-04-07T13:13:14.393Z,17.51
2019-04-07T13:16:14.566Z,17.94
2019-04-07T13:19:02.269Z,18.23
2019-04-07T13:21:53.206Z,17.52
2019-04-07T13:24:44.663Z,17.26
2019-04-07T13:27:35.198Z,17.93
2019-04-07T13:30:08.963Z,18.09
2019-04-07T13:32:52.406Z,17.08
2019-04-07T13:35:33.465Z,17.22
2019-04-07T13:38:19.288Z,17.99
2019-04-07T13:41:05.209Z,17.51
2019-04-07T13:44:04.665Z,16.89
2019-04-07T13:46:42.306Z,16.69
2019-04-07T13:49:41.703Z,16.41
2019-04-07T13:52:29.034Z,16.20
2019-04-07T13:55:07.766Z,16.22
2019-04-07T13:57:57.837Z,16.22
2019-04-07T14:00:52.006Z,16.32
2019-04-07T14:03:35.698Z,16.24
2019-04-07T14:06:19.430Z,16.51
2019-04-07T14:09:13.612Z,16.88
2019-04-07T14:14:43.515Z,16.70
2019-04-07T14:17:21.915Z,17.13
2019-04-07T14:20:24.723Z,16.73
2019-04-07T14:22:59.426Z,16.73
2019-04-07T14:25:47.432Z,16.85
2019-04-07T14:28:34.671Z,16.89
2019-04-07T14:31:24.043Z,16.62
2019-04-07T14:34:00.016Z,16.33
2019-04-07T14:37:00.036Z,16.10
2019-04-07T14:39:42.262Z,15.89
2019-04-07T14:42:38.077Z,16.16
2019-04-07T14:45:32.048Z,16.75
2019-04-07T14:48:05.436Z,17.17
2019-04-07T14:50:55.965Z,16.81
2019-04-07T14:53:53.033Z,16.78
2019-04-07T14:56:48.920Z,17.30
2019-04-07T14:59:48.547Z,17.37
2019-04-07T15:02:17.136Z,17.52
2019-04-07T15:04:48.722Z,17.59
2019-04-07T15:07:36.591Z,16.99
2019-04-07T15:10:16.641Z,17.29
2019-04-07T15:12:51.225Z,17.58
2019-04-07T15:15:21.465Z,17.83
2019-04-07T15:17:49.500Z,17.79
2019-04-07T15:20:17.557Z,17.51
2019-04-07T15:22:47.256Z,18.35
2019-04-07T15:25:16.352Z,17.71
2019-04-07T15:27:44.528Z,17.54
2019-04-07T15:30:15.267Z,17.32
2019-04-07T15:32:43.854Z,17.20
2019-04-07T15:35:14.323Z,16.67
2019-04-07T15:37:43.075Z,16.42
2019-04-07T15:40:10.881Z,16.18
2019-04-07T15:42:43.433Z,15.94
2019-04-07T15:45:10.564Z,15.81
2019-04-07T15:47:37.841Z,15.72
2019-04-07T15:50:06.096Z,15.67
2019-04-07T15:52:34.701Z,15.55
2019-04-07T15:55:03.582Z,15.63
2019-04-07T15:57:32.869Z,15.65
2019-04-07T16:00:03.920Z,16.02
2019-04-07T16:02:31.360Z,16.07
2019-04-07T16:05:02.346Z,15.98
2019-04-07T16:07:31.539Z,16.18
2019-04-07T16:09:59.730Z,16.09
2019-04-07T16:12:28.693Z,16.25
2019-04-07T16:14:57.885Z,16.09
2019-04-07T16:17:28.809Z,16.27
2019-04-07T16:19:56.556Z,16.40
2019-04-07T16:22:25.793Z,16.49
2019-04-07T16:24:55.143Z,16.37
2019-04-07T16:27:25.991Z,16.36
2019-04-07T16:29:54.742Z,16.40
2019-04-07T16:32:22.484Z,16.21
2019-04-07T16:34:50.069Z,16.17
2019-04-07T16:37:18.245Z,16.10
2019-04-07T16:39:45.878Z,15.86
2019-04-07T16:42:15.289Z,15.73
2019-04-07T16:44:44.474Z,15.70
2019-04-07T16:47:21.849Z,15.46
2019-04-07T16:49:46.701Z,15.44
2019-04-07T16:52:13.491Z,15.31
2019-04-07T16:54:43.452Z,15.21
2019-04-07T16:57:10.939Z,15.14
2019-04-07T16:59:42.785Z,15.03
2019-04-07T17:02:09.212Z,14.94
2019-04-07T17:04:37.320Z,14.87
2019-04-07T17:07:10.848Z,14.78
2019-04-07T17:09:36.350Z,14.72
2019-04-07T17:12:04.181Z,14.61
2019-04-07T17:14:35.065Z,14.47
2019-04-07T17:17:02.268Z,14.41
2019-04-07T17:19:35.525Z,14.34
2019-04-07T17:22:05.009Z,14.28
2019-04-07T17:24:35.644Z,14.23
2019-04-07T17:27:09.749Z,14.05
2019-04-07T17:29:37.097Z,13.87
2019-04-07T17:32:06.763Z,13.78
2019-04-07T17:34:35.536Z,13.61
2019-04-07T17:37:04.094Z,13.49
2019-04-07T17:39:46.165Z,13.35
2019-04-07T17:42:18.406Z,13.25
2019-04-07T17:45:05.718Z,13.27
2019-04-07T17:47:51.781Z,13.22
2019-04-07T17:50:31.391Z,13.03
2019-04-07T17:53:17.411Z,12.87
2019-04-07T17:56:13.871Z,12.74
2019-04-07T17:59:14.187Z,12.72
2019-04-07T18:01:59.174Z,12.68
2019-04-07T18:04:56.884Z,12.67
2019-04-07T18:07:44.851Z,12.61
2019-04-07T18:10:48.669Z,12.57
2019-04-07T18:13:47.168Z,12.58
2019-04-07T18:16:31.797Z,12.45
2019-04-07T18:19:17.608Z,12.40
2019-04-07T18:21:57.953Z,12.38
2019-04-07T18:24:43.768Z,12.33
2019-04-07T18:27:27.706Z,12.27
2019-04-07T18:30:14.746Z,12.27
2019-04-07T18:33:01.809Z,12.16
2019-04-07T18:35:50.989Z,12.11
2019-04-07T18:38:39.422Z,11.96
2019-04-07T18:41:19.798Z,11.96
2019-04-07T18:44:04.558Z,11.93
2019-04-07T18:47:05.316Z,11.85
2019-04-07T18:49:55.209Z,11.66
2019-04-07T18:52:53.223Z,11.54
2019-04-07T18:55:40.359Z,11.45
2019-04-07T18:58:30.118Z,11.38
2019-04-07T19:01:33.070Z,11.33
2019-04-07T19:04:24.215Z,11.20
2019-04-07T19:07:22.498Z,10.90
2019-04-07T19:10:06.438Z,10.85
2019-04-07T19:13:05.645Z,10.75
2019-04-07T19:15:47.804Z,10.56
2019-04-07T19:18:34.669Z,10.56
2019-04-07T19:21:16.225Z,10.49
2019-04-07T19:24:12.938Z,10.40
2019-04-07T19:26:54.395Z,10.40
2019-04-07T19:29:44.461Z,10.25
2019-04-07T19:32:46.608Z,10.27
2019-04-07T19:35:45.988Z,10.52
2019-04-07T19:38:25.985Z,10.57
2019-04-07T19:41:12.174Z,10.55
2019-04-07T19:43:46.792Z,10.38
2019-04-07T19:46:31.587Z,10.22
2019-04-07T19:49:11.278Z,10.08
2019-04-07T19:52:00.928Z,10.09
2019-04-07T19:54:50.438Z,10.10
2019-04-07T19:57:40.595Z,10.12
2019-04-07T20:00:30.973Z,9.98
2019-04-07T20:03:20.619Z,9.81
2019-04-07T20:06:05.806Z,9.62
2019-04-07T20:08:42.540Z,9.63
2019-04-07T20:11:32.511Z,9.69
2019-04-07T20:14:31.473Z,9.79
2019-04-07T20:17:20.996Z,9.79
2019-04-07T20:20:08.772Z,9.79
2019-04-07T20:23:02.245Z,9.77
2019-04-07T20:25:55.548Z,9.81
2019-04-07T20:28:41.057Z,9.56
2019-04-07T20:31:34.392Z,9.57
2019-04-07T20:34:09.850Z,9.44
2019-04-07T20:36:59.827Z,9.37
2019-04-07T20:39:39.907Z,9.23
2019-04-07T20:42:27.514Z,9.15
2019-04-07T20:45:24.496Z,8.86
2019-04-07T20:48:21.357Z,8.74
2019-04-07T20:51:17.449Z,8.69
2019-04-07T20:53:54.201Z,8.40
2019-04-07T20:56:31.965Z,8.18
2019-04-07T20:59:14.645Z,8.03
2019-04-07T21:02:14.416Z,7.89
2019-04-07T21:05:12.344Z,7.80
2019-04-07T21:08:08.854Z,7.93
2019-04-07T21:11:07.469Z,8.08
2019-04-07T21:14:07.221Z,8.20
2019-04-07T21:17:01.582Z,7.85
2019-04-07T21:19:47.608Z,7.76
2019-04-07T21:22:21.553Z,7.59
2019-04-07T21:25:01.646Z,7.79
2019-04-07T21:27:36.083Z,7.92
2019-04-07T21:30:12.939Z,7.87
2019-04-07T21:32:58.591Z,7.51
2019-04-07T21:35:36.675Z,7.26
2019-04-07T21:38:25.745Z,7.43
2019-04-07T21:41:16.801Z,7.25
2019-04-07T21:44:02.511Z,7.11
2019-04-07T21:46:48.427Z,6.94
2019-04-07T21:49:39.470Z,6.75
2019-04-07T21:52:28.074Z,6.85
2019-04-07T21:55:09.884Z,6.96
2019-04-07T21:57:59.697Z,6.82
2019-04-07T22:00:47.570Z,6.60
2019-04-07T22:03:33.374Z,6.58
2019-04-07T22:06:26.518Z,6.65
2019-04-07T22:09:09.371Z,6.71
2019-04-07T22:11:37.990Z,6.97
2019-04-07T22:14:07.356Z,6.88
2019-04-07T22:16:35.472Z,7.07
2019-04-07T22:19:04.252Z,7.19
2019-04-07T22:21:32.396Z,7.25
2019-04-07T22:24:01.285Z,7.58
2019-04-07T22:26:29.975Z,7.54
2019-04-07T22:29:01.480Z,7.41
2019-04-07T22:31:31.759Z,7.40
2019-04-07T22:34:02.343Z,7.49
2019-04-07T22:36:29.991Z,7.52
2019-04-07T22:39:00.850Z,7.61
2019-04-07T22:41:27.064Z,7.55
2019-04-07T22:43:55.370Z,7.47
2019-04-07T22:46:26.925Z,7.49
2019-04-07T22:48:57.660Z,7.70
2019-04-07T22:51:23.038Z,7.80
2019-04-07T22:53:54.357Z,7.59
2019-04-07T22:56:22.294Z,7.50
2019-04-07T22:58:50.675Z,7.51
2019-04-07T23:01:18.655Z,7.53
2019-04-07T23:03:49.690Z,7.56
2019-04-07T23:06:18.945Z,7.48
2019-04-07T23:08:47.263Z,7.42
2019-04-07T23:11:14.797Z,7.36
2019-04-07T23:13:42.459Z,7.23
2019-04-07T23:16:15.118Z,7.21
2019-04-07T23:18:40.532Z,7.10
2019-04-07T23:21:08.006Z,7.18
2019-04-07T23:23:35.455Z,7.22
2019-04-07T23:26:03.425Z,7.12
2019-04-07T23:28:31.088Z,7.11
2019-04-07T23:30:59.039Z,7.07
2019-04-07T23:33:27.638Z,6.96
2019-04-07T23:35:55.695Z,7.07
2019-04-07T23:38:23.972Z,7.12
2019-04-07T23:40:52.181Z,7.14
2019-04-07T23:43:19.705Z,7.05
2019-04-07T23:45:47.531Z,6.95
2019-04-07T23:48:15.868Z,7.14
2019-04-07T23:50:43.595Z,7.19
2019-04-07T23:54:00.528Z,7.21
2019-04-07T23:56:27.998Z,7.17
2019-04-07T23:58:56.301Z,6.94
